Time;durP1;ratioP1;P1;durP2;ratioP2;P2;SDS_P1;SDS_P2;PMS_P1;PMS_P2;Temp;Humidity;BMP_temperature;BMP_pressure;BME280_temperature;BME280_humidity;BME280_pressure;Samples;Min_cycle;Max_cycle;Signal;HPM_P1;HPM_P2
2022/01/23 00:02:15;;;;;;;13.93;5.97;;;;;;;-2.68;64.87;95211.44;5059655;28;20179;-90
2022/01/23 00:04:41;;;;;;;12.00;5.47;;;;;;;-2.66;65.27;95230.19;5054799;28;20178;-90
2022/01/23 00:07:09;;;;;;;14.23;5.60;;;;;;;-2.82;65.45;95198.03;5059849;28;20333;-90
2022/01/23 00:09:36;;;;;;;14.90;7.47;;;;;;;-2.60;65.26;95238.38;5054389;28;20194;-90
2022/01/23 00:12:06;;;;;;;12.23;6.93;;;;;;;-2.84;65.11;95200.72;5059014;28;20206;-90
2022/01/23 00:17:18;;;;;;;8.57;4.23;;;;;;;-2.73;65.35;95217.91;5062404;28;20896;-89
2022/01/23 00:19:54;;;;;;;6.63;3.57;;;;;;;-2.82;65.86;95224.59;5056854;28;20232;-89
2022/01/23 00:22:23;;;;;;;8.10;4.00;;;;;;;-2.84;66.66;95241.09;5051294;28;20643;-89
2022/01/23 00:32:45;;;;;;;8.00;3.87;;;;;;;-2.62;66.64;95247.97;5061303;28;20194;-90
2022/01/23 00:35:11;;;;;;;5.20;4.03;;;;;;;-2.82;66.98;95237.47;5058781;28;20179;-90
2022/01/23 00:37:37;;;;;;;4.27;3.10;;;;;;;-2.70;66.66;95235.72;5059403;28;20321;-90
2022/01/23 00:40:04;;;;;;;6.40;3.63;;;;;;;-2.63;66.64;95260.03;5059833;28;20222;-91
2022/01/23 00:42:30;;;;;;;6.23;3.70;;;;;;;-2.94;66.73;95184.34;5048263;28;20191;-91
2022/01/23 00:45:06;;;;;;;6.93;3.63;;;;;;;-2.66;66.61;95203.59;5053909;28;20248;-89
2022/01/23 00:47:32;;;;;;;9.53;4.67;;;;;;;-2.72;66.27;95189.47;5053402;28;20167;-88
2022/01/23 00:49:58;;;;;;;9.90;5.23;;;;;;;-2.75;65.94;95202.56;5060885;28;20257;-90
2022/01/23 00:52:23;;;;;;;11.23;5.80;;;;;;;-2.75;66.69;95184.53;5059744;28;20190;-87
2022/01/23 00:54:50;;;;;;;7.20;4.10;;;;;;;-2.77;66.64;95172.75;5072306;28;20609;-87
2022/01/23 00:57:16;;;;;;;5.60;3.80;;;;;;;-2.60;66.08;95187.69;5073865;28;20187;-87
2022/01/23 00:59:41;;;;;;;7.70;4.07;;;;;;;-2.44;66.77;95220.75;5073940;28;20195;-88
2022/01/23 01:02:07;;;;;;;7.67;3.60;;;;;;;-2.27;66.48;95246.00;5073753;28;20216;-88
2022/01/23 01:04:32;;;;;;;4.83;3.23;;;;;;;-2.55;66.02;95187.28;5073890;28;20249;-88
2022/01/23 01:06:58;;;;;;;11.63;5.10;;;;;;;-2.61;66.91;95190.38;5073687;28;20688;-88
2022/01/23 01:09:23;;;;;;;8.43;4.03;;;;;;;-2.66;67.50;95190.72;5073724;28;20639;-87
2022/01/23 01:14:33;;;;;;;6.03;4.30;;;;;;;-2.39;67.10;95213.47;5057940;28;20171;-87
2022/01/23 01:35:42;;;;;;;9.43;4.60;;;;;;;-2.76;67.65;95182.91;5062965;28;20565;-91
2022/01/23 01:38:08;;;;;;;7.20;3.80;;;;;;;-2.61;67.58;95221.28;5066642;28;20183;-88
2022/01/23 01:40:33;;;;;;;6.37;4.47;;;;;;;-2.86;68.11;95176.06;5070337;28;20265;-90
2022/01/23 01:42:59;;;;;;;9.30;4.13;;;;;;;-2.58;67.89;95215.88;5061469;28;20637;-91
2022/01/23 01:45:27;;;;;;;9.60;5.23;;;;;;;-2.80;67.98;95175.56;5057523;28;20616;-90
2022/01/23 01:47:55;;;;;;;8.80;4.83;;;;;;;-2.47;67.85;95210.69;5058622;28;20216;-90
2022/01/23 01:50:21;;;;;;;6.83;3.80;;;;;;;-2.50;67.73;95206.59;5059876;28;20178;-89
2022/01/23 01:52:47;;;;;;;7.73;4.30;;;;;;;-2.73;66.99;95161.25;5072232;28;20258;-89
2022/01/23 01:55:19;;;;;;;7.47;4.20;;;;;;;-2.66;67.64;95183.00;5073727;28;20352;-90
2022/01/23 01:57:52;;;;;;;5.63;3.80;;;;;;;-2.66;67.37;95183.81;5074234;28;20668;-90
2022/01/23 02:08:28;;;;;;;7.37;4.50;;;;;;;-2.46;67.60;95218.31;5074872;28;20225;-90
2022/01/23 02:11:04;;;;;;;8.30;4.03;;;;;;;-2.29;67.27;95255.59;5073528;28;20181;-90
2022/01/23 02:16:31;;;;;;;8.53;3.87;;;;;;;-3.14;67.19;95157.63;5074811;28;20695;-90
2022/01/23 02:24:48;;;;;;;5.70;3.70;;;;;;;-2.66;67.34;95258.53;5065292;28;20177;-90
2022/01/23 02:54:28;;;;;;;13.77;5.80;;;;;;;-3.67;68.49;95213.22;5063568;28;20183;-89
2022/01/23 02:56:57;;;;;;;13.53;6.37;;;;;;;-3.65;68.26;95223.38;5061530;28;20201;-90
2022/01/23 02:59:29;;;;;;;11.30;6.53;;;;;;;-3.28;68.22;95280.56;5066914;28;20174;-89
2022/01/23 03:04:36;;;;;;;9.90;5.87;;;;;;;-3.14;67.99;95288.09;5063626;28;20175;-90
2022/01/23 03:13:00;;;;;;;9.17;4.63;;;;;;;-3.36;68.07;95300.91;5055032;28;20159;-89
2022/01/23 03:15:02;;;;;;;5.73;3.80;;;;;;;-3.73;67.71;95231.69;5054381;28;20282;-89
2022/01/23 03:31:26;;;;;;;8.57;4.77;;;;;;;-3.49;67.43;95288.19;5053439;28;20173;-89
2022/01/23 03:33:52;;;;;;;8.27;5.70;;;;;;;-3.56;67.65;95274.97;5053116;28;20159;-89
2022/01/23 03:36:18;;;;;;;12.43;5.40;;;;;;;-3.87;67.58;95232.69;5051487;28;20203;-89
2022/01/23 03:38:44;;;;;;;14.17;6.57;;;;;;;-3.54;68.13;95288.50;5053132;28;20606;-89
2022/01/23 03:41:10;;;;;;;9.03;5.20;;;;;;;-3.67;68.72;95303.22;5051535;28;20179;-88
2022/01/23 03:43:38;;;;;;;10.50;5.80;;;;;;;-3.72;69.39;95269.31;5051787;28;20172;-89
2022/01/23 03:51:35;;;;;;;8.93;4.50;;;;;;;-3.29;67.70;95296.97;5064148;28;20239;-89
2022/01/23 03:54:01;;;;;;;8.67;5.07;;;;;;;-3.52;67.58;95254.94;5062331;28;20171;-89
2022/01/23 03:56:30;;;;;;;8.43;4.67;;;;;;;-3.65;67.38;95231.09;5064548;28;20213;-90
2022/01/23 03:58:57;;;;;;;13.33;6.73;;;;;;;-3.50;66.80;95253.91;5060231;28;20171;-89
2022/01/23 04:01:22;;;;;;;15.30;7.10;;;;;;;-3.77;66.83;95219.97;5051688;28;20171;-89
2022/01/23 04:03:48;;;;;;;11.97;7.00;;;;;;;-3.58;66.42;95269.09;5051329;28;20182;-89
2022/01/23 04:06:14;;;;;;;14.87;5.97;;;;;;;-3.61;66.83;95281.38;5051522;28;20214;-89
2022/01/23 04:08:39;;;;;;;10.50;5.33;;;;;;;-3.85;67.43;95237.72;5053290;28;21074;-89
2022/01/23 04:11:05;;;;;;;8.53;5.30;;;;;;;-4.06;66.88;95227.28;5051356;28;20266;-88
2022/01/23 04:13:43;;;;;;;13.47;6.13;;;;;;;-3.75;67.02;95269.53;5064841;28;20189;-87
2022/01/23 04:16:40;;;;;;;12.83;6.27;;;;;;;-3.69;67.38;95284.50;5062605;28;20668;-88
2022/01/23 04:19:34;;;;;;;15.37;7.13;;;;;;;-3.73;67.07;95267.69;5056152;28;20178;-89
2022/01/23 04:45:11;;;;;;;11.27;5.23;;;;;;;-3.74;67.51;95303.78;5056021;28;20609;-88
2022/01/23 05:00:23;;;;;;;15.27;9.00;;;;;;;-3.84;66.92;95289.03;5066145;28;20232;-90
2022/01/23 05:05:37;;;;;;;12.57;8.77;;;;;;;-3.92;67.27;95270.78;5044715;28;20233;-90
2022/01/23 05:08:06;;;;;;;12.50;7.70;;;;;;;-3.57;67.53;95327.34;5034656;28;20227;-90
2022/01/23 05:10:32;;;;;;;12.10;7.30;;;;;;;-3.75;66.69;95320.16;5034885;28;20172;-89
2022/01/23 05:12:58;;;;;;;15.70;7.70;;;;;;;-3.36;66.84;95367.81;5034713;28;20160;-90
2022/01/23 05:15:24;;;;;;;15.43;8.27;;;;;;;-3.71;66.39;95270.94;5034685;28;20182;-89
2022/01/23 05:17:49;;;;;;;22.63;8.33;;;;;;;-3.57;65.73;95283.59;5034359;28;20204;-87
2022/01/23 05:20:16;;;;;;;17.07;7.40;;;;;;;-3.22;65.41;95337.56;5033537;28;20160;-89
2022/01/23 05:22:51;;;;;;;9.87;5.70;;;;;;;-2.89;65.56;95365.09;5033979;28;20266;-88
2022/01/23 05:25:24;;;;;;;11.80;5.57;;;;;;;-2.99;64.28;95332.44;5033986;28;20194;-88
2022/01/23 05:27:52;;;;;;;8.10;5.03;;;;;;;-2.99;64.36;95333.25;5034478;28;20223;-89
2022/01/23 05:30:18;;;;;;;9.73;5.20;;;;;;;-2.63;63.86;95368.25;5035555;28;20156;-89
2022/01/23 05:32:44;;;;;;;12.17;6.37;;;;;;;-2.91;63.41;95328.31;5034060;28;20743;-87
2022/01/23 05:35:13;;;;;;;12.60;6.60;;;;;;;-2.93;63.03;95321.66;5034398;28;20160;-90
2022/01/23 05:37:39;;;;;;;15.43;6.07;;;;;;;-3.02;62.94;95318.03;5034158;28;20192;-90
2022/01/23 05:40:06;;;;;;;13.10;7.13;;;;;;;-2.67;62.73;95371.97;5034005;28;20544;-90
2022/01/23 05:42:32;;;;;;;14.23;7.10;;;;;;;-2.98;62.27;95321.19;5033996;28;20160;-88
2022/01/23 05:44:58;;;;;;;14.10;7.13;;;;;;;-3.23;62.08;95292.19;5033877;28;20187;-89
2022/01/23 05:47:23;;;;;;;16.63;7.30;;;;;;;-3.50;62.00;95259.06;5033852;28;20695;-89
2022/01/23 05:49:49;;;;;;;15.53;8.63;;;;;;;-3.11;61.87;95316.97;5033973;28;20246;-89
2022/01/23 05:52:15;;;;;;;20.83;11.53;;;;;;;-3.01;61.42;95331.72;5033809;28;20168;-88
2022/01/23 05:54:41;;;;;;;28.63;15.43;;;;;;;-2.74;61.67;95394.00;5033614;28;20249;-90
2022/01/23 05:57:07;;;;;;;39.43;17.17;;;;;;;-3.08;61.09;95342.47;5033458;28;20211;-89
2022/01/23 05:59:32;;;;;;;49.33;21.73;;;;;;;-3.21;61.60;95335.81;5034873;28;20607;-89
2022/01/23 06:01:58;;;;;;;45.10;20.30;;;;;;;-3.18;61.67;95349.25;5033413;28;20186;-89
2022/01/23 06:04:25;;;;;;;38.13;18.90;;;;;;;-3.31;61.38;95316.84;5033229;28;20179;-89
2022/01/23 06:06:51;;;;;;;38.53;16.67;;;;;;;-2.98;61.88;95388.13;5033197;28;20689;-89
2022/01/23 06:09:20;;;;;;;36.97;16.83;;;;;;;-3.02;61.56;95392.69;5033704;28;20176;-88
2022/01/23 06:11:45;;;;;;;31.33;16.40;;;;;;;-3.27;61.70;95362.00;5033418;28;20175;-88
2022/01/23 06:14:11;;;;;;;38.87;16.87;;;;;;;-3.44;61.63;95348.63;5033348;28;20172;-89
2022/01/23 06:16:37;;;;;;;34.90;15.97;;;;;;;-3.11;61.48;95401.09;5033017;28;20234;-89
2022/01/23 06:19:04;;;;;;;38.27;17.53;;;;;;;-3.51;61.97;95344.88;5033084;28;20172;-89
2022/01/23 06:21:29;;;;;;;47.07;18.33;;;;;;;-3.59;61.33;95334.34;5033371;28;20164;-88
2022/01/23 06:24:03;;;;;;;41.60;19.60;;;;;;;-3.30;61.72;95382.84;5032723;28;20664;-88
2022/01/23 06:26:43;;;;;;;51.40;19.27;;;;;;;-3.38;61.72;95359.41;5032723;28;20183;-87
2022/01/23 06:29:10;;;;;;;40.73;17.63;;;;;;;-3.28;61.46;95365.50;5071837;28;20186;-88
2022/01/23 06:31:36;;;;;;;35.83;15.63;;;;;;;-3.33;62.02;95345.25;5058120;28;20175;-88
2022/01/23 06:34:02;;;;;;;44.23;17.57;;;;;;;-3.02;61.93;95379.81;5057847;28;20625;-89
2022/01/23 06:36:28;;;;;;;31.43;13.70;;;;;;;-2.72;61.28;95336.28;5064272;28;20194;-87
2022/01/23 06:38:53;;;;;;;32.20;14.90;;;;;;;-1.78;58.47;95370.97;5053045;28;20324;-89
2022/01/23 06:41:19;;;;;;;48.67;17.43;;;;;;;-1.25;56.65;95354.53;5053234;28;20628;-90
2022/01/23 06:43:44;;;;;;;39.67;16.20;;;;;;;-0.50;54.55;95337.88;5055759;28;20178;-90
2022/01/23 06:46:10;;;;;;;22.07;11.37;;;;;;;0.09;51.57;95335.25;5052525;28;20166;-90
2022/01/23 06:48:37;;;;;;;25.83;12.23;;;;;;;1.37;50.43;95415.19;5052328;28;20179;-87
2022/01/23 06:51:02;;;;;;;31.27;15.50;;;;;;;2.07;46.93;95374.06;5059094;28;20184;-90
2022/01/23 06:53:27;;;;;;;45.17;20.73;;;;;;;2.86;44.88;95366.31;5056446;28;20257;-89
2022/01/23 06:55:53;;;;;;;48.80;20.77;;;;;;;3.38;43.94;95362.78;5053115;28;20273;-90
2022/01/23 06:58:18;;;;;;;37.47;17.40;;;;;;;3.92;43.06;95357.34;5057746;28;20163;-89
2022/01/23 07:00:44;;;;;;;31.63;16.27;;;;;;;4.53;41.65;95375.25;5067623;28;20206;-89
2022/01/23 07:03:10;;;;;;;40.50;18.13;;;;;;;4.57;40.06;95354.88;5063142;28;20659;-90
2022/01/23 07:05:36;;;;;;;30.33;16.40;;;;;;;4.66;40.13;95373.00;5072328;28;20165;-89
2022/01/23 07:08:02;;;;;;;38.87;18.13;;;;;;;4.26;40.74;95328.59;5058287;28;20305;-89
2022/01/23 07:10:27;;;;;;;38.23;17.20;;;;;;;4.09;40.72;95306.91;5060713;28;20208;-89
2022/01/23 07:12:53;;;;;;;34.00;16.33;;;;;;;5.16;40.33;95354.56;5063947;28;20174;-90
2022/01/23 07:15:19;;;;;;;22.27;11.67;;;;;;;5.77;38.26;95337.44;5069082;28;20163;-90
2022/01/23 07:17:44;;;;;;;31.80;14.30;;;;;;;6.34;37.29;95329.31;5072012;28;20244;-89
2022/01/23 07:20:10;;;;;;;28.40;13.60;;;;;;;7.37;36.09;95392.47;5071840;28;20194;-90
2022/01/23 07:22:36;;;;;;;19.70;10.73;;;;;;;7.28;35.43;95321.03;5071754;28;20260;-90
2022/01/23 07:25:04;;;;;;;24.70;12.87;;;;;;;7.17;35.35;95338.03;5072155;28;20178;-89
2022/01/23 07:27:38;;;;;;;27.17;12.10;;;;;;;6.91;36.29;95389.94;5071865;28;20170;-88
2022/01/23 07:30:09;;;;;;;20.20;10.43;;;;;;;5.91;37.48;95377.72;5072253;28;20174;-89
2022/01/23 07:32:34;;;;;;;21.20;11.10;;;;;;;4.56;39.31;95341.03;5071776;28;20162;-90
2022/01/23 07:34:59;;;;;;;24.47;12.70;;;;;;;3.18;41.48;95301.56;5072072;28;20174;-90
2022/01/23 07:37:25;;;;;;;19.70;10.27;;;;;;;2.28;44.28;95325.25;5071906;28;20296;-89
2022/01/23 07:39:50;;;;;;;22.17;11.77;;;;;;;1.37;46.17;95295.09;5073445;28;20204;-90
2022/01/23 07:42:16;;;;;;;25.37;12.30;;;;;;;1.10;47.76;95339.94;5072114;28;20230;-89
2022/01/23 07:44:42;;;;;;;35.37;14.87;;;;;;;0.90;48.91;95326.22;5072178;28;20178;-91
2022/01/23 07:47:07;;;;;;;37.87;13.87;;;;;;;1.27;48.52;95400.63;5073425;28;20162;-89
2022/01/23 07:49:33;;;;;;;24.93;12.83;;;;;;;0.75;49.78;95356.13;5071578;28;20174;-89
2022/01/23 07:52:01;;;;;;;27.07;11.90;;;;;;;0.53;50.08;95367.56;5071330;28;20177;-89
2022/01/23 07:54:26;;;;;;;24.50;12.30;;;;;;;0.62;50.97;95402.19;5065519;28;20667;-89
2022/01/23 07:56:52;;;;;;;26.00;12.87;;;;;;;0.05;51.48;95325.34;5059786;28;20195;-90
2022/01/23 07:59:18;;;;;;;22.83;11.37;;;;;;;-0.43;52.50;95324.28;5056668;28;20174;-90
2022/01/23 08:01:44;;;;;;;21.77;10.97;;;;;;;-0.64;53.30;95315.81;5072406;28;20178;-90
2022/01/23 08:04:09;;;;;;;23.27;12.00;;;;;;;-0.66;54.33;95324.63;5061896;28;20183;-90
2022/01/23 08:06:45;;;;;;;23.67;11.07;;;;;;;-0.27;54.53;95406.56;5055491;28;20170;-90
2022/01/23 08:09:11;;;;;;;26.87;11.10;;;;;;;-0.76;55.52;95353.84;5057379;28;20177;-90
2022/01/23 08:11:36;;;;;;;18.43;9.73;;;;;;;-0.94;54.91;95362.31;5076071;28;20531;-89
2022/01/23 08:14:02;;;;;;;18.57;9.57;;;;;;;-1.29;55.75;95317.00;5075453;28;20223;-89
2022/01/23 08:16:28;;;;;;;26.23;11.57;;;;;;;-1.30;55.87;95317.97;5075274;28;20667;-88
2022/01/23 08:18:53;;;;;;;20.33;9.83;;;;;;;-0.98;56.22;95373.88;5075732;28;20174;-89
2022/01/23 08:21:19;;;;;;;12.23;6.63;;;;;;;-0.96;55.43;95384.91;5075309;28;20178;-89
2022/01/23 08:23:44;;;;;;;17.33;7.77;;;;;;;-1.31;55.32;95334.41;5075205;28;20178;-89
2022/01/23 08:26:10;;;;;;;13.23;7.87;;;;;;;-1.38;55.70;95322.91;5075355;28;20249;-89
2022/01/23 08:28:35;;;;;;;15.10;6.87;;;;;;;-1.23;55.86;95347.50;5075298;28;20186;-89
2022/01/23 08:31:01;;;;;;;15.57;7.27;;;;;;;-1.18;56.08;95345.34;5074793;28;20162;-89
2022/01/23 08:33:27;;;;;;;15.40;7.60;;;;;;;-1.25;55.92;95325.31;5075969;28;20166;-88
2022/01/23 08:35:56;;;;;;;22.07;10.40;;;;;;;-1.09;55.33;95353.25;5074687;28;20167;-90
2022/01/23 08:38:23;;;;;;;25.07;10.23;;;;;;;-0.68;55.24;95411.81;5074822;28;20712;-88
2022/01/23 08:41:49;;;;;;;13.03;7.40;;;;;;;-1.09;54.70;95337.78;5075157;28;20241;-90
2022/01/23 08:43:34;;;;;;;15.40;6.13;;;;;;;-0.59;54.85;95411.84;5076335;28;20553;-89
2022/01/23 08:45:59;;;;;;;16.60;9.23;;;;;;;-1.00;55.25;95344.75;5075904;28;20196;-90
2022/01/23 08:48:25;;;;;;;17.23;7.67;;;;;;;-1.08;55.15;95339.41;5074921;28;20668;-90
2022/01/23 08:50:50;;;;;;;15.10;6.80;;;;;;;-1.07;55.05;95320.38;5074676;28;20166;-88
2022/01/23 08:53:16;;;;;;;15.33;7.57;;;;;;;-0.74;54.78;95358.88;5065613;28;20182;-88
2022/01/23 08:55:41;;;;;;;12.93;6.50;;;;;;;-0.63;54.58;95355.41;5059012;28;20195;-89
2022/01/23 08:58:07;;;;;;;16.70;8.00;;;;;;;-0.57;54.31;95357.44;5062105;28;20169;-89
2022/01/23 09:00:32;;;;;;;16.87;7.60;;;;;;;-0.31;54.29;95405.16;5054714;28;20201;-89
2022/01/23 09:02:58;;;;;;;21.67;9.57;;;;;;;-0.79;54.78;95337.78;5054148;28;20259;-87
2022/01/23 09:05:26;;;;;;;19.83;8.60;;;;;;;-0.69;54.67;95337.84;5065717;28;20668;-89
2022/01/23 09:07:52;;;;;;;25.63;10.80;;;;;;;-0.62;54.92;95326.84;5064242;28;20221;-89
2022/01/23 09:10:25;;;;;;;32.30;11.40;;;;;;;-0.27;53.73;95387.63;5057843;28;20171;-87
2022/01/23 09:13:07;;;;;;;18.43;9.47;;;;;;;-0.38;54.08;95360.94;5071763;28;20171;-88
2022/01/23 09:15:33;;;;;;;24.40;9.30;;;;;;;-0.02;54.33;95413.03;5074513;28;20185;-89
2022/01/23 09:17:59;;;;;;;22.10;9.37;;;;;;;-0.61;53.18;95320.72;5073659;28;20221;-88
2022/01/23 09:20:24;;;;;;;21.97;8.10;;;;;;;-0.12;52.92;95401.84;5073791;28;20194;-89
2022/01/23 09:22:50;;;;;;;13.17;7.03;;;;;;;-0.35;53.01;95359.84;5073722;28;20185;-88
2022/01/23 09:25:16;;;;;;;20.27;7.90;;;;;;;-0.70;53.94;95318.09;5060171;28;20249;-88
2022/01/23 09:27:41;;;;;;;21.67;9.63;;;;;;;-0.56;54.37;95334.06;5063531;28;20159;-88
2022/01/23 09:30:17;;;;;;;21.90;10.27;;;;;;;-0.37;54.43;95379.84;5065923;28;20641;-88
2022/01/23 09:32:44;;;;;;;17.43;7.63;;;;;;;-0.19;54.46;95396.38;5062110;28;20162;-87
2022/01/23 09:35:14;;;;;;;16.87;7.90;;;;;;;-0.47;54.59;95350.56;5062653;28;20166;-87
2022/01/23 09:37:40;;;;;;;20.43;9.73;;;;;;;-0.27;64.86;95341.09;5062276;28;20199;-89
2022/01/23 09:40:06;;;;;;;18.57;9.17;;;;;;;0.10;55.94;95367.97;5061243;28;20175;-90
2022/01/23 09:42:43;;;;;;;14.27;6.73;;;;;;;-0.17;52.93;95342.72;5063886;28;20266;-90
2022/01/23 09:45:12;;;;;;;18.70;7.67;;;;;;;-0.63;52.59;95280.44;5058296;28;20194;-90
2022/01/23 09:47:39;;;;;;;14.63;6.87;;;;;;;-0.35;52.81;95328.81;5061926;28;20662;-89
2022/01/23 09:50:07;;;;;;;17.33;7.43;;;;;;;-0.31;53.42;95344.88;5064702;28;20648;-90
2022/01/23 09:52:35;;;;;;;11.80;6.07;;;;;;;-0.40;53.03;95342.13;5058291;28;20186;-89
2022/01/23 09:55:07;;;;;;;12.40;6.70;;;;;;;-0.20;53.18;95378.41;5061048;28;20216;-89
2022/01/23 09:57:36;;;;;;;16.57;8.83;;;;;;;-0.33;53.15;95382.97;5061622;28;20222;-87
2022/01/23 10:00:06;;;;;;;20.17;8.80;;;;;;;-0.32;54.01;95379.44;5061401;28;20180;-87
2022/01/23 10:02:32;;;;;;;20.67;9.23;;;;;;;-0.91;53.94;95300.88;5065187;28;20181;-90
2022/01/23 10:04:58;;;;;;;10.63;7.03;;;;;;;-0.69;54.54;95333.44;5057050;28;20170;-87
2022/01/23 10:07:23;;;;;;;13.93;7.10;;;;;;;-0.50;54.77;95338.69;5064030;28;20651;-88
2022/01/23 10:09:54;;;;;;;14.23;7.70;;;;;;;-0.51;54.63;95310.38;5061256;28;20725;-89
2022/01/23 10:12:26;;;;;;;19.47;8.80;;;;;;;-0.09;54.52;95353.22;5059611;28;20771;-87
2022/01/23 10:14:54;;;;;;;19.87;8.77;;;;;;;-0.13;53.17;95340.69;5062048;28;20174;-85
2022/01/23 10:17:20;;;;;;;14.77;7.13;;;;;;;-0.23;53.81;95307.03;5062757;28;20219;-84
2022/01/23 10:19:46;;;;;;;16.13;8.07;;;;;;;0.10;53.71;95336.09;5063155;28;20265;-86
2022/01/23 10:22:14;;;;;;;14.17;6.20;;;;;;;0.26;52.63;95355.28;5059076;28;20591;-84
2022/01/23 10:24:39;;;;;;;13.40;6.73;;;;;;;-0.20;52.40;95270.59;5061904;28;20619;-82
2022/01/23 10:27:05;;;;;;;14.03;6.93;;;;;;;-0.10;52.60;95299.06;5060971;28;20183;-84
2022/01/23 10:29:35;;;;;;;13.40;6.30;;;;;;;-0.04;52.57;95301.09;5061153;28;20191;-84
2022/01/23 10:32:12;;;;;;;7.80;4.53;;;;;;;0.05;52.37;95339.09;5056728;28;20160;-85
2022/01/23 10:34:43;;;;;;;8.67;4.70;;;;;;;-0.44;52.62;95270.97;5064485;28;20266;-83
2022/01/23 10:37:09;;;;;;;12.13;6.30;;;;;;;-0.11;53.35;95320.69;5060024;28;20244;-85
2022/01/23 10:39:53;;;;;;;11.37;5.63;;;;;;;-0.21;52.89;95294.00;5061852;28;20166;-84
2022/01/23 10:46:38;;;;;;;16.30;5.97;;;;;;;0.01;52.62;95329.94;5060051;28;20633;-85
2022/01/23 10:48:24;;;;;;;14.67;6.37;;;;;;;0.03;54.13;95333.22;5056559;28;20174;-86
2022/01/23 10:50:50;;;;;;;11.30;5.20;;;;;;;0.04;51.96;95295.22;5063750;28;20186;-88
2022/01/23 10:53:17;;;;;;;16.30;6.13;;;;;;;0.11;51.09;95291.97;5063401;28;20907;-85
2022/01/23 10:55:44;;;;;;;14.13;7.57;;;;;;;-0.22;51.91;95243.22;5061777;28;20170;-85
2022/01/23 10:58:24;;;;;;;19.03;7.23;;;;;;;-0.20;51.41;95228.38;5055332;28;20278;-85
2022/01/23 11:00:50;;;;;;;16.63;7.03;;;;;;;0.21;51.69;95274.66;5059092;28;20167;-86
2022/01/23 11:03:24;;;;;;;16.67;7.13;;;;;;;0.34;50.27;95290.75;5058859;28;20655;-88
2022/01/23 11:05:51;;;;;;;14.83;6.17;;;;;;;0.52;49.51;95314.13;5057502;28;20208;-89
2022/01/23 11:08:22;;;;;;;21.43;8.83;;;;;;;-0.05;50.81;95233.00;5053899;28;20214;-86
2022/01/23 11:11:04;;;;;;;15.20;7.53;;;;;;;0.53;50.18;95309.78;5057453;28;20645;-89
2022/01/23 11:19:35;;;;;;;15.07;6.67;;;;;;;0.35;50.59;95260.47;5057190;28;20166;-87
2022/01/23 11:22:03;;;;;;;14.17;6.23;;;;;;;0.44;49.36;95267.41;5065350;28;20480;-88
2022/01/23 11:24:37;;;;;;;15.03;7.00;;;;;;;0.24;49.59;95248.50;5062251;28;20167;-92
2022/01/23 11:27:03;;;;;;;16.37;7.03;;;;;;;0.12;49.89;95251.38;5062785;28;20206;-89
2022/01/23 11:29:29;;;;;;;19.47;9.10;;;;;;;0.44;50.66;95293.28;5064127;28;20646;-88
2022/01/23 11:31:54;;;;;;;14.13;7.23;;;;;;;0.19;50.22;95257.63;5066354;28;20203;-87
2022/01/23 11:34:22;;;;;;;12.40;5.20;;;;;;;0.42;49.60;95271.09;5060760;28;20170;-85
2022/01/23 11:36:50;;;;;;;11.90;6.40;;;;;;;0.03;49.16;95226.31;5059522;28;20248;-85
2022/01/23 11:39:27;;;;;;;13.37;6.43;;;;;;;0.34;49.70;95285.56;5062932;28;20250;-85
2022/01/23 11:56:24;;;;;;;14.43;6.30;;;;;;;0.33;51.12;95283.13;5060547;28;20210;-85
2022/01/23 11:58:54;;;;;;;11.27;5.63;;;;;;;0.22;50.46;95275.47;5058524;28;20182;-86
2022/01/23 12:01:26;;;;;;;9.03;6.40;;;;;;;0.15;51.33;95272.63;5062344;28;20244;-84
2022/01/23 12:04:11;;;;;;;13.50;6.47;;;;;;;0.01;52.43;95265.25;5064811;28;20174;-88
2022/01/23 12:06:39;;;;;;;14.10;7.90;;;;;;;-0.13;51.56;95243.22;5071029;28;20638;-87
2022/01/23 12:09:17;;;;;;;14.37;6.90;;;;;;;0.04;52.40;95267.59;5071231;28;20258;-90
2022/01/23 12:12:01;;;;;;;14.90;6.97;;;;;;;0.02;51.60;95263.50;5071600;28;20180;-86
2022/01/23 12:17:34;;;;;;;12.90;4.90;;;;;;;-0.33;52.19;95259.66;5072256;28;20564;-88
2022/01/23 12:20:01;;;;;;;7.20;4.40;;;;;;;-0.63;52.43;95242.50;5070502;28;20178;-88
2022/01/23 12:22:32;;;;;;;6.37;4.20;;;;;;;-0.63;53.51;95267.50;5070587;28;20186;-88
2022/01/23 12:25:05;;;;;;;10.43;5.73;;;;;;;-0.77;54.40;95263.53;5070942;28;20174;-89
2022/01/23 12:27:31;;;;;;;9.37;5.67;;;;;;;-0.95;54.74;95234.13;5070417;28;20232;-89
2022/01/23 12:30:22;;;;;;;17.33;6.67;;;;;;;-0.77;55.08;95248.00;5071805;28;20591;-89
2022/01/23 12:33:09;;;;;;;15.87;6.77;;;;;;;-0.73;54.64;95248.56;5062350;28;20186;-88
2022/01/23 12:35:40;;;;;;;10.73;5.63;;;;;;;-1.12;55.67;95214.88;5071727;28;20220;-88
2022/01/23 12:38:12;;;;;;;10.03;5.00;;;;;;;-0.73;55.29;95262.31;5069745;28;20228;-88
2022/01/23 12:40:43;;;;;;;14.40;6.30;;;;;;;-0.71;56.11;95263.00;5070416;28;20171;-88
2022/01/23 12:43:21;;;;;;;18.77;6.90;;;;;;;-0.64;55.45;95261.53;5070634;28;20253;-88
2022/01/23 12:45:53;;;;;;;13.80;6.87;;;;;;;-0.84;56.16;95254.66;5075512;28;20502;-89
2022/01/23 12:48:30;;;;;;;11.13;4.97;;;;;;;-1.06;56.38;95254.88;5074131;28;20204;-89
2022/01/23 12:50:59;;;;;;;11.83;4.97;;;;;;;-1.15;57.14;95261.63;5068030;28;20175;-89
2022/01/23 12:53:35;;;;;;;11.13;5.17;;;;;;;-1.15;57.61;95259.88;5053943;28;20189;-88
2022/01/23 12:56:07;;;;;;;16.90;6.07;;;;;;;-1.05;57.84;95251.34;5056922;28;20174;-89
2022/01/23 12:58:34;;;;;;;11.60;5.93;;;;;;;-1.15;57.09;95205.63;5065668;28;20173;-89
2022/01/23 13:01:03;;;;;;;11.77;5.27;;;;;;;-0.70;56.27;95258.66;5066295;28;20618;-89
2022/01/23 13:03:29;;;;;;;11.00;6.00;;;;;;;-0.85;56.49;95242.69;5061596;28;20225;-89
2022/01/23 13:05:55;;;;;;;24.07;10.10;;;;;;;-0.88;56.31;95232.63;5073904;28;20194;-88
2022/01/23 13:08:31;;;;;;;26.00;10.33;;;;;;;-0.69;56.77;95268.06;5073862;28;20703;-88
2022/01/23 13:18:51;;;;;;;10.33;5.63;;;;;;;-1.43;57.73;95187.44;5054904;28;20253;-87
2022/01/23 13:34:51;;;;;;;19.83;8.47;;;;;;;-1.06;57.88;95275.53;5062265;28;20566;-86
2022/01/23 13:37:26;;;;;;;23.43;9.33;;;;;;;-1.17;57.03;95263.53;5059334;28;20187;-86
2022/01/23 13:40:00;;;;;;;20.83;10.17;;;;;;;-0.98;57.36;95273.94;5038194;28;20178;-86
2022/01/23 13:54:16;;;;;;;19.03;8.40;;;;;;;-0.81;56.60;95269.91;5058624;28;20318;-86
2022/01/23 13:59:38;;;;;;;14.07;7.73;;;;;;;-0.79;56.44;95273.19;5064217;28;20548;-90
2022/01/23 14:02:17;;;;;;;19.80;8.73;;;;;;;-0.93;55.96;95245.94;5048991;28;20179;-89
2022/01/23 14:04:53;;;;;;;16.57;7.60;;;;;;;-1.20;56.97;95227.63;5054450;28;20182;-89
2022/01/23 14:07:26;;;;;;;25.10;7.33;;;;;;;-1.50;56.62;95174.25;5053941;28;20218;-89
2022/01/23 14:09:57;;;;;;;14.63;7.10;;;;;;;-1.06;56.61;95253.09;5052512;28;20667;-89
2022/01/23 14:12:25;;;;;;;28.30;10.63;;;;;;;-1.30;57.45;95199.22;5052241;28;20171;-89
2022/01/23 14:14:55;;;;;;;15.43;7.10;;;;;;;-0.94;56.81;95258.97;5056466;28;20185;-88
2022/01/23 14:17:25;;;;;;;16.60;8.10;;;;;;;-1.42;57.16;95207.97;5060210;28;20211;-89
2022/01/23 14:20:05;;;;;;;20.57;8.43;;;;;;;-1.50;57.09;95184.56;5039121;28;20225;-89
2022/01/23 14:22:33;;;;;;;10.83;5.57;;;;;;;-1.33;56.76;95208.97;5056338;28;20715;-88
2022/01/23 14:25:12;;;;;;;8.70;5.57;;;;;;;-1.19;57.06;95234.41;5064440;28;20222;-88
2022/01/23 14:27:39;;;;;;;9.40;5.30;;;;;;;-1.57;56.66;95209.28;5056494;28;20199;-88
2022/01/23 14:30:09;;;;;;;11.83;5.90;;;;;;;-1.81;57.32;95204.38;5060190;28;20184;-87
2022/01/23 14:32:42;;;;;;;12.30;6.70;;;;;;;-1.26;58.04;95285.78;5068305;28;20175;-90
2022/01/23 14:35:18;;;;;;;16.50;8.57;;;;;;;-1.25;57.93;95290.00;5060176;28;20186;-90
2022/01/23 14:37:46;;;;;;;14.37;7.63;;;;;;;-1.29;57.97;95275.69;5052472;28;20190;-90
2022/01/23 14:40:25;;;;;;;14.17;7.53;;;;;;;-1.17;58.39;95292.75;5052452;28;20267;-90
2022/01/23 14:43:12;;;;;;;14.13;7.67;;;;;;;-1.51;58.13;95244.88;5046530;28;21042;-90
2022/01/23 14:45:43;;;;;;;13.40;7.43;;;;;;;-1.12;58.79;95294.13;5052905;28;20183;-87
2022/01/23 14:48:10;;;;;;;16.60;7.63;;;;;;;-1.04;58.63;95295.13;5052407;28;20190;-87
2022/01/23 14:50:40;;;;;;;28.98;12.32;;;;;;;-1.21;58.48;95262.16;5051267;28;20415;-89
2022/01/23 14:53:13;;;;;;;21.57;9.77;;;;;;;-1.24;57.97;95258.06;5052036;28;20341;-87
2022/01/23 14:55:54;;;;;;;16.70;8.00;;;;;;;-1.01;57.51;95296.63;5051788;28;20163;-87
2022/01/23 14:58:21;;;;;;;14.83;7.43;;;;;;;-1.53;58.35;95219.19;5051585;28;20183;-87
2022/01/23 15:01:08;;;;;;;18.23;7.63;;;;;;;-1.49;58.18;95217.19;5051520;28;20159;-91